Time;durP1;ratioP1;P1;durP2;ratioP2;P2;SDS_P1;SDS_P2;PMS_P1;PMS_P2;Temp;Humidity;BMP_temperature;BMP_pressure;BME280_temperature;BME280_humidity;BME280_pressure;Samples;Min_cycle;Max_cycle;Signal;HPM_P1;HPM_P2
2023/02/23 00:01:49;;;;;;;44.55;22.25;;;;;;;;;;4988775;28;20073;-50
2023/02/23 00:04:14;;;;;;;42.30;23.45;;;;;;;;;;4988229;28;20755;-54
2023/02/23 00:06:40;;;;;;;38.45;22.75;;;;;;;;;;4987072;28;20041;-51
2023/02/23 00:09:10;;;;;;;40.22;22.17;;;;;;;;;;4986870;28;20038;-53
2023/02/23 00:11:36;;;;;;;34.00;20.63;;;;;;;;;;4985249;28;20069;-55
2023/02/23 00:14:02;;;;;;;42.35;23.60;;;;;;;;;;4985909;28;20150;-55
2023/02/23 00:16:27;;;;;;;38.53;21.90;;;;;;;;;;4985369;28;20030;-49
2023/02/23 00:18:53;;;;;;;42.33;24.25;;;;;;;;;;4985727;28;20081;-57
2023/02/23 00:21:19;;;;;;;41.78;23.73;;;;;;;;;;4983395;28;20026;-48
2023/02/23 00:23:48;;;;;;;34.85;21.95;;;;;;;;;;4983111;28;20034;-51
2023/02/23 00:26:14;;;;;;;35.30;21.27;;;;;;;;;;4984878;28;20651;-55
2023/02/23 00:28:41;;;;;;;34.90;19.63;;;;;;;;;;4982673;28;20030;-54
2023/02/23 00:31:06;;;;;;;;;;;;;;;;;;4984904;28;20039;-52
2023/02/23 00:33:33;;;;;;;34.47;19.50;;;;;;;;;;4986061;28;19913;-50
2023/02/23 00:36:09;;;;;;;36.65;20.83;;;;;;;;;;4983418;28;20292;-55
2023/02/23 00:38:35;;;;;;;32.08;19.25;;;;;;;;;;4985229;28;20030;-53
2023/02/23 00:41:11;;;;;;;35.17;22.52;;;;;;;;;;4983040;28;20045;-55
2023/02/23 00:43:48;;;;;;;34.78;21.77;;;;;;;;;;4997473;28;20471;-54
2023/02/23 00:46:17;;;;;;;40.72;21.98;;;;;;;;;;4982357;28;20113;-51
2023/02/23 00:48:44;;;;;;;38.15;22.27;;;;;;;;;;4985876;28;20121;-58
2023/02/23 00:51:10;;;;;;;36.35;20.98;;;;;;;;;;4983379;28;20121;-53
2023/02/23 00:53:35;;;;;;;41.47;22.42;;;;;;;;;;4982051;28;20038;-56
2023/02/23 00:56:03;;;;;;;37.83;22.17;;;;;;;;;;4977240;28;20061;-57
2023/02/23 00:58:29;;;;;;;37.42;22.55;;;;;;;;;;4977931;28;20249;-50
2023/02/23 01:00:55;;;;;;;39.53;22.25;;;;;;;;;;4983377;28;20042;-52
2023/02/23 01:03:20;;;;;;;45.60;22.10;;;;;;;;;;4982664;28;20049;-48
2023/02/23 01:05:48;;;;;;;39.13;22.55;;;;;;;;;;4983523;28;20086;-51
2023/02/23 01:08:14;;;;;;;38.03;22.42;;;;;;;;;;4984887;28;20037;-50
2023/02/23 01:10:41;;;;;;;34.22;21.50;;;;;;;;;;4982896;28;20034;-51
2023/02/23 01:13:10;;;;;;;35.55;20.52;;;;;;;;;;4981421;28;20031;-60
2023/02/23 01:15:42;;;;;;;35.70;21.00;;;;;;;;;;4977377;28;20042;-54
2023/02/23 01:18:08;;;;;;;38.50;20.83;;;;;;;;;;4985561;28;20034;-53
2023/02/23 01:20:34;;;;;;;34.67;20.80;;;;;;;;;;4981370;28;20038;-55
2023/02/23 01:23:00;;;;;;;31.63;19.95;;;;;;;;;;4993387;28;20030;-55
2023/02/23 01:25:27;;;;;;;35.15;19.95;;;;;;;;;;4993520;28;20046;-54
2023/02/23 01:27:53;;;;;;;41.10;22.23;;;;;;;;;;4983652;28;20026;-56
2023/02/23 01:30:18;;;;;;;35.30;20.27;;;;;;;;;;4986637;28;20062;-55
2023/02/23 01:32:43;;;;;;;32.63;19.83;;;;;;;;;;4986315;28;20034;-56
2023/02/23 01:35:09;;;;;;;34.15;20.77;;;;;;;;;;4983775;28;20479;-54
2023/02/23 01:37:35;;;;;;;40.83;24.35;;;;;;;;;;4979737;28;20030;-56
2023/02/23 01:40:08;;;;;;;35.83;22.00;;;;;;;;;;4982747;28;20399;-48
2023/02/23 01:42:37;;;;;;;41.55;23.38;;;;;;;;;;4982714;28;20022;-52
2023/02/23 01:45:21;;;;;;;41.42;22.40;;;;;;;;;;4981707;28;20423;-53
2023/02/23 01:47:48;;;;;;;43.00;22.55;;;;;;;;;;4983525;28;20387;-50
2023/02/23 01:50:15;;;;;;;38.10;23.05;;;;;;;;;;4976256;28;20075;-46
2023/02/23 01:52:42;;;;;;;40.15;22.95;;;;;;;;;;4982933;28;20431;-53
2023/02/23 01:55:11;;;;;;;43.70;24.50;;;;;;;;;;4981317;28;20093;-49
2023/02/23 01:57:38;;;;;;;41.72;22.42;;;;;;;;;;4991818;28;20129;-50
2023/02/23 02:00:11;;;;;;;38.70;23.10;;;;;;;;;;4996265;28;20052;-48
2023/02/23 02:02:38;;;;;;;35.88;21.10;;;;;;;;;;4982036;28;20280;-58
2023/02/23 02:05:06;;;;;;;32.65;21.05;;;;;;;;;;4998802;28;20041;-49
2023/02/23 02:07:34;;;;;;;38.03;23.75;;;;;;;;;;4983150;28;20042;-51
2023/02/23 02:12:38;;;;;;;33.95;20.60;;;;;;;;;;4969967;28;20137;-51
2023/02/23 02:15:04;;;;;;;41.93;24.07;;;;;;;;;;4982654;28;20042;-57
2023/02/23 02:17:42;;;;;;;41.67;22.45;;;;;;;;;;4979726;28;20113;-50
2023/02/23 02:20:31;;;;;;;34.55;21.27;;;;;;;;;;4982920;28;20094;-58
2023/02/23 02:22:58;;;;;;;38.42;23.23;;;;;;;;;;4984606;28;20093;-54
2023/02/23 02:25:40;;;;;;;41.25;23.17;;;;;;;;;;4984342;28;20042;-52
2023/02/23 02:28:24;;;;;;;39.53;22.83;;;;;;;;;;4980267;28;20130;-60
2023/02/23 02:30:58;;;;;;;36.75;22.52;;;;;;;;;;4975507;28;20038;-53
2023/02/23 02:33:34;;;;;;;40.28;24.38;;;;;;;;;;4964576;28;20030;-47
2023/02/23 02:36:16;;;;;;;42.28;24.00;;;;;;;;;;4960996;28;20042;-54
2023/02/23 02:39:06;;;;;;;40.35;22.98;;;;;;;;;;4987218;28;20037;-52
2023/02/23 02:41:42;;;;;;;41.72;25.17;;;;;;;;;;4987442;28;20109;-53
2023/02/23 02:44:16;;;;;;;40.30;23.42;;;;;;;;;;4986315;28;20164;-49
2023/02/23 02:46:56;;;;;;;39.30;23.98;;;;;;;;;;4984593;28;20474;-54
2023/02/23 02:49:30;;;;;;;40.67;24.38;;;;;;;;;;4985330;28;20150;-53
2023/02/23 02:51:59;;;;;;;43.45;23.92;;;;;;;;;;4986414;28;20060;-48
2023/02/23 02:54:52;;;;;;;43.17;25.52;;;;;;;;;;4986461;28;20034;-48
2023/02/23 02:57:19;;;;;;;38.75;23.05;;;;;;;;;;4982127;28;20678;-54
2023/02/23 04:18:11;;;;;;;36.47;22.10;;;;;;;;;;4983750;28;21031;-50
2023/02/23 04:20:36;;;;;;;44.95;25.02;;;;;;;;;;4984079;28;20026;-55
2023/02/23 04:23:01;;;;;;;36.90;22.73;;;;;;;;;;4984665;28;20037;-48
2023/02/23 04:25:27;;;;;;;37.33;23.58;;;;;;;;;;4984350;28;20130;-58
2023/02/23 04:27:53;;;;;;;42.53;23.00;;;;;;;;;;4984547;28;20026;-51
2023/02/23 04:30:19;;;;;;;42.40;26.02;;;;;;;;;;4985506;28;20026;-53
2023/02/23 04:32:44;;;;;;;40.47;24.10;;;;;;;;;;4998739;28;20034;-54
2023/02/23 04:35:11;;;;;;;35.65;22.75;;;;;;;;;;4984163;28;20049;-51
2023/02/23 04:37:36;;;;;;;35.97;21.88;;;;;;;;;;4984082;28;20042;-52
2023/02/23 04:40:01;;;;;;;41.88;24.92;;;;;;;;;;4982737;28;20054;-59
2023/02/23 04:42:27;;;;;;;42.55;25.08;;;;;;;;;;4982587;28;20526;-59
2023/02/23 04:44:52;;;;;;;35.30;21.50;;;;;;;;;;4984851;28;20030;-53
2023/02/23 04:47:18;;;;;;;36.45;21.40;;;;;;;;;;4984162;28;20440;-54
2023/02/23 04:49:43;;;;;;;40.42;23.63;;;;;;;;;;4982995;28;20030;-52
2023/02/23 04:52:08;;;;;;;37.60;23.95;;;;;;;;;;4985867;28;20038;-58
2023/02/23 04:54:38;;;;;;;44.00;25.90;;;;;;;;;;4995280;28;20491;-49
2023/02/23 04:57:03;;;;;;;47.10;26.65;;;;;;;;;;4982368;28;20410;-51
2023/02/23 04:59:30;;;;;;;53.70;27.75;;;;;;;;;;4979465;28;20034;-55
2023/02/23 05:01:55;;;;;;;45.05;25.73;;;;;;;;;;4979815;28;20050;-54
2023/02/23 05:04:20;;;;;;;44.20;25.65;;;;;;;;;;4979718;28;20066;-50
2023/02/23 05:06:46;;;;;;;46.42;26.92;;;;;;;;;;4979953;28;20887;-51
2023/02/23 05:09:12;;;;;;;42.95;25.00;;;;;;;;;;4985473;28;20479;-53
2023/02/23 05:11:37;;;;;;;48.15;26.05;;;;;;;;;;4983307;28;20212;-56
2023/02/23 05:14:03;;;;;;;44.85;26.92;;;;;;;;;;4984349;28;20129;-56
2023/02/23 05:16:29;;;;;;;47.33;27.63;;;;;;;;;;4982791;28;20129;-55
2023/02/23 05:18:54;;;;;;;45.47;27.55;;;;;;;;;;4983678;28;20037;-51
2023/02/23 05:21:19;;;;;;;41.03;24.35;;;;;;;;;;4983935;28;20030;-52
2023/02/23 05:23:46;;;;;;;45.30;27.33;;;;;;;;;;4988194;28;20325;-55
2023/02/23 05:26:11;;;;;;;40.40;24.42;;;;;;;;;;4984733;28;20117;-49
2023/02/23 05:28:37;;;;;;;36.47;22.88;;;;;;;;;;4984412;28;20122;-48
2023/02/23 05:31:03;;;;;;;36.80;22.75;;;;;;;;;;4988658;28;20071;-51
2023/02/23 05:33:29;;;;;;;39.83;22.58;;;;;;;;;;4982885;28;20646;-48
2023/02/23 05:35:54;;;;;;;40.53;24.20;;;;;;;;;;4982879;28;20117;-51
2023/02/23 05:38:20;;;;;;;37.70;24.75;;;;;;;;;;4986198;28;20192;-46
2023/02/23 05:40:46;;;;;;;39.15;22.80;;;;;;;;;;4983787;28;20286;-49
2023/02/23 05:43:11;;;;;;;40.45;24.40;;;;;;;;;;4981132;28;20606;-52
2023/02/23 05:45:40;;;;;;;37.03;22.77;;;;;;;;;;4982651;28;20038;-48
2023/02/23 05:48:06;;;;;;;46.70;27.27;;;;;;;;;;4982406;28;20674;-55
2023/02/23 05:50:31;;;;;;;41.65;24.08;;;;;;;;;;4977210;28;20030;-48
2023/02/23 05:52:56;;;;;;;43.33;25.77;;;;;;;;;;4984299;28;20089;-56
2023/02/23 05:55:22;;;;;;;37.63;22.67;;;;;;;;;;4983372;28;20061;-52
2023/02/23 05:57:47;;;;;;;38.80;24.80;;;;;;;;;;4983779;28;20643;-48
2023/02/23 06:00:12;;;;;;;37.53;23.80;;;;;;;;;;4983328;28;20096;-49
2023/02/23 06:02:38;;;;;;;42.72;25.42;;;;;;;;;;4980459;28;20538;-52
2023/02/23 06:05:04;;;;;;;41.95;24.85;;;;;;;;;;4982982;28;20061;-54
2023/02/23 06:07:30;;;;;;;44.90;27.73;;;;;;;;;;4981390;28;20077;-52
2023/02/23 06:09:56;;;;;;;40.30;25.13;;;;;;;;;;4978308;28;21395;-52
2023/02/23 06:12:22;;;;;;;41.22;25.55;;;;;;;;;;4979465;28;20527;-50
2023/02/23 06:14:49;;;;;;;50.28;28.63;;;;;;;;;;4986473;28;20038;-47
2023/02/23 06:17:15;;;;;;;46.53;25.98;;;;;;;;;;4989982;28;20057;-53
2023/02/23 06:19:41;;;;;;;44.92;26.63;;;;;;;;;;4988345;28;20042;-52
2023/02/23 06:22:06;;;;;;;45.92;26.75;;;;;;;;;;4987431;28;20026;-50
2023/02/23 06:24:33;;;;;;;46.50;26.90;;;;;;;;;;4984576;28;20157;-54
2023/02/23 06:26:58;;;;;;;44.47;27.27;;;;;;;;;;4988483;28;20038;-55
2023/02/23 06:29:23;;;;;;;44.50;25.85;;;;;;;;;;4988103;28;20282;-51
2023/02/23 06:31:49;;;;;;;39.83;24.42;;;;;;;;;;4984377;28;20036;-50
2023/02/23 06:34:14;;;;;;;43.00;24.88;;;;;;;;;;4986610;28;20034;-49
2023/02/23 06:36:39;;;;;;;40.75;24.02;;;;;;;;;;4986131;28;20037;-47
2023/02/23 06:39:05;;;;;;;41.72;23.67;;;;;;;;;;4985414;28;20026;-48
2023/02/23 06:41:31;;;;;;;39.45;23.92;;;;;;;;;;4987532;28;20053;-47
2023/02/23 06:43:56;;;;;;;45.60;26.13;;;;;;;;;;4985380;28;20347;-47
2023/02/23 06:46:21;;;;;;;45.38;26.52;;;;;;;;;;4980205;28;20041;-50
2023/02/23 06:48:47;;;;;;;45.75;28.30;;;;;;;;;;4991773;28;20552;-56
2023/02/23 06:51:12;;;;;;;39.88;25.30;;;;;;;;;;4984879;28;20524;-50
2023/02/23 06:53:37;;;;;;;40.50;23.77;;;;;;;;;;4985953;28;20089;-50
2023/02/23 06:56:03;;;;;;;36.97;23.20;;;;;;;;;;4983111;28;20041;-56
2023/02/23 06:58:28;;;;;;;38.47;22.65;;;;;;;;;;4987683;28;20140;-56
2023/02/23 07:00:55;;;;;;;43.85;25.58;;;;;;;;;;4984870;28;20050;-54
2023/02/23 07:03:21;;;;;;;43.78;26.00;;;;;;;;;;4985397;28;20030;-52
2023/02/23 07:05:46;;;;;;;43.70;25.15;;;;;;;;;;4986950;28;20030;-58
2023/02/23 07:08:12;;;;;;;40.53;24.42;;;;;;;;;;4988585;28;20084;-56
2023/02/23 07:10:37;;;;;;;41.05;24.02;;;;;;;;;;4984455;28;20030;-54
2023/02/23 07:13:02;;;;;;;42.10;23.13;;;;;;;;;;4986497;28;20026;-56
2023/02/23 07:15:28;;;;;;;35.72;21.95;;;;;;;;;;4981216;28;20653;-58
2023/02/23 07:17:53;;;;;;;37.65;22.58;;;;;;;;;;4986514;28;20038;-53
2023/02/23 07:20:21;;;;;;;50.25;28.00;;;;;;;;;;4988014;28;20065;-51
2023/02/23 07:22:46;;;;;;;47.55;27.58;;;;;;;;;;4985357;28;20046;-52
2023/02/23 07:25:12;;;;;;;49.17;28.15;;;;;;;;;;4987376;28;20032;-53
2023/02/23 07:27:38;;;;;;;48.55;29.63;;;;;;;;;;4989232;28;20073;-51
2023/02/23 07:30:03;;;;;;;51.15;28.33;;;;;;;;;;4987852;28;20048;-55
2023/02/23 07:32:28;;;;;;;48.22;27.70;;;;;;;;;;4987886;28;20034;-49
2023/02/23 07:34:54;;;;;;;45.53;27.08;;;;;;;;;;4988798;28;20092;-51
2023/02/23 07:37:20;;;;;;;42.17;25.83;;;;;;;;;;4988174;28;20144;-52
2023/02/23 07:39:46;;;;;;;43.78;25.98;;;;;;;;;;4987288;28;20084;-54
2023/02/23 07:42:11;;;;;;;47.95;27.85;;;;;;;;;;4989472;28;20038;-49
2023/02/23 07:44:37;;;;;;;48.80;28.23;;;;;;;;;;4985678;28;20113;-50
2023/02/23 07:47:02;;;;;;;48.50;27.45;;;;;;;;;;4989310;28;20034;-52
2023/02/23 07:49:29;;;;;;;43.78;25.27;;;;;;;;;;4988648;28;20041;-56
2023/02/23 07:51:54;;;;;;;48.10;28.03;;;;;;;;;;4986903;28;20042;-54
2023/02/23 07:54:20;;;;;;;50.95;27.48;;;;;;;;;;4985033;28;20036;-58
2023/02/23 07:56:46;;;;;;;46.70;28.40;;;;;;;;;;4985504;28;20121;-52
2023/02/23 07:59:11;;;;;;;47.72;26.88;;;;;;;;;;4984282;28;20036;-53
2023/02/23 08:01:36;;;;;;;43.00;26.63;;;;;;;;;;4983870;28;20093;-55
2023/02/23 08:04:02;;;;;;;46.67;28.50;;;;;;;;;;4986065;28;20516;-55
2023/02/23 08:06:28;;;;;;;47.75;26.90;;;;;;;;;;4984794;28;20498;-55
2023/02/23 08:08:54;;;;;;;48.20;28.63;;;;;;;;;;4984807;28;20077;-51
2023/02/23 08:11:19;;;;;;;45.90;27.63;;;;;;;;;;4985166;28;20023;-52
2023/02/23 08:13:44;;;;;;;47.03;26.83;;;;;;;;;;4962358;28;20054;-57
2023/02/23 08:16:11;;;;;;;44.92;26.63;;;;;;;;;;4984601;28;20038;-51
2023/02/23 08:18:36;;;;;;;44.03;25.90;;;;;;;;;;4984051;28;20018;-54
2023/02/23 08:21:02;;;;;;;43.72;25.75;;;;;;;;;;4981567;28;20042;-52
2023/02/23 08:23:28;;;;;;;43.53;25.13;;;;;;;;;;4981147;28;20431;-57
2023/02/23 08:25:54;;;;;;;43.15;25.95;;;;;;;;;;4982033;28;20568;-53
2023/02/23 08:28:19;;;;;;;39.80;23.35;;;;;;;;;;4984251;28;20034;-54
2023/02/23 08:30:44;;;;;;;44.05;25.75;;;;;;;;;;4982169;28;20142;-56
2023/02/23 08:33:10;;;;;;;47.72;25.67;;;;;;;;;;4986506;28;20034;-53
2023/02/23 08:35:35;;;;;;;43.50;25.67;;;;;;;;;;4988135;28;20026;-58
2023/02/23 08:38:00;;;;;;;48.60;27.90;;;;;;;;;;4984752;28;20037;-53
2023/02/23 08:40:26;;;;;;;43.78;26.77;;;;;;;;;;4983866;28;20026;-63
2023/02/23 08:42:51;;;;;;;43.67;25.80;;;;;;;;;;4982257;28;20084;-56
2023/02/23 08:45:17;;;;;;;47.33;25.10;;;;;;;;;;4982968;28;20046;-52
2023/02/23 08:47:42;;;;;;;45.35;25.35;;;;;;;;;;4983010;28;20091;-52
2023/02/23 08:50:09;;;;;;;46.75;26.33;;;;;;;;;;4982758;28;20034;-59
2023/02/23 08:52:35;;;;;;;41.63;25.58;;;;;;;;;;4981521;28;20606;-53
2023/02/23 08:55:00;;;;;;;40.15;24.55;;;;;;;;;;4982735;28;20065;-53
2023/02/23 08:57:26;;;;;;;42.00;25.23;;;;;;;;;;4983403;28;20037;-55
2023/02/23 08:59:51;;;;;;;42.08;24.75;;;;;;;;;;4980527;28;20114;-47
2023/02/23 09:02:16;;;;;;;40.90;24.75;;;;;;;;;;4977965;28;20133;-49
2023/02/23 09:04:42;;;;;;;39.58;24.52;;;;;;;;;;4985672;28;20040;-56
2023/02/23 09:07:09;;;;;;;40.25;24.40;;;;;;;;;;4983647;28;20109;-52
2023/02/23 09:09:34;;;;;;;41.00;24.13;;;;;;;;;;4983517;28;20065;-54
2023/02/23 09:11:59;;;;;;;42.78;24.00;;;;;;;;;;4982499;28;20050;-57
2023/02/23 09:14:25;;;;;;;41.60;23.50;;;;;;;;;;4981857;28;20034;-51
2023/02/23 09:16:50;;;;;;;38.85;23.83;;;;;;;;;;4981502;28;20086;-56
2023/02/23 09:19:16;;;;;;;44.53;23.95;;;;;;;;;;4981064;28;20034;-54
2023/02/23 09:21:42;;;;;;;36.55;21.65;;;;;;;;;;4983816;28;20088;-53
2023/02/23 09:24:07;;;;;;;36.15;19.98;;;;;;;;;;4982995;28;20372;-52
2023/02/23 09:26:33;;;;;;;32.60;20.70;;;;;;;;;;4980403;28;20037;-56
2023/02/23 09:28:59;;;;;;;32.58;20.05;;;;;;;;;;4982325;28;20030;-51
2023/02/23 09:31:24;;;;;;;33.97;20.35;;;;;;;;;;4984010;28;20064;-56
2023/02/23 09:33:50;;;;;;;37.25;20.95;;;;;;;;;;4981377;28;20030;-49
2023/02/23 09:36:20;;;;;;;31.17;19.95;;;;;;;;;;4982877;28;20038;-53
2023/02/23 09:38:47;;;;;;;32.80;19.90;;;;;;;;;;4984505;28;20403;-55
2023/02/23 09:41:24;;;;;;;30.73;20.27;;;;;;;;;;4990761;28;20045;-49
2023/02/23 09:43:54;;;;;;;40.35;23.60;;;;;;;;;;4980884;28;20422;-49
2023/02/23 09:46:20;;;;;;;43.35;24.00;;;;;;;;;;4985232;28;20073;-53
2023/02/23 09:48:45;;;;;;;38.05;22.27;;;;;;;;;;4987472;28;20118;-55
2023/02/23 09:51:15;;;;;;;32.72;20.17;;;;;;;;;;4987882;28;20493;-51
2023/02/23 09:53:40;;;;;;;36.00;19.83;;;;;;;;;;4986756;28;20516;-51
2023/02/23 09:56:11;;;;;;;28.05;17.65;;;;;;;;;;4987381;28;20030;-53
2023/02/23 09:58:37;;;;;;;30.50;17.88;;;;;;;;;;4987408;28;20037;-52
2023/02/23 10:01:21;;;;;;;24.95;15.25;;;;;;;;;;4991187;28;20060;-58
2023/02/23 10:03:52;;;;;;;25.52;15.90;;;;;;;;;;4988063;28;20531;-52
2023/02/23 10:06:18;;;;;;;25.73;15.48;;;;;;;;;;4989431;28;20030;-56
2023/02/23 10:08:46;;;;;;;24.48;15.68;;;;;;;;;;4987524;28;20030;-60
2023/02/23 10:11:11;;;;;;;29.23;16.00;;;;;;;;;;4987676;28;20492;-50
2023/02/23 10:13:48;;;;;;;22.05;13.85;;;;;;;;;;4988325;28;20033;-54
2023/02/23 10:16:22;;;;;;;20.88;12.80;;;;;;;;;;4986570;28;20034;-59
2023/02/23 10:18:55;;;;;;;19.35;12.55;;;;;;;;;;4986857;28;20117;-58
2023/02/23 10:21:28;;;;;;;22.17;12.30;;;;;;;;;;4984547;28;20045;-52
2023/02/23 10:24:02;;;;;;;20.58;12.80;;;;;;;;;;4984657;28;20126;-56
2023/02/23 10:26:33;;;;;;;20.08;11.77;;;;;;;;;;4988333;28;20500;-57
2023/02/23 10:28:59;;;;;;;20.52;11.77;;;;;;;;;;4985801;28;20041;-56
2023/02/23 10:31:27;;;;;;;18.48;10.48;;;;;;;;;;4984957;28;20038;-57
2023/02/23 10:33:54;;;;;;;18.80;10.48;;;;;;;;;;4991491;28;20027;-58
2023/02/23 10:36:41;;;;;;;17.27;9.23;;;;;;;;;;4989625;28;20463;-46
2023/02/23 10:39:06;;;;;;;;;;;;;;;;;;4985227;28;20345;-53
2023/02/23 10:41:32;;;;;;;14.27;9.53;;;;;;;;;;4984793;28;19913;-53
2023/02/23 10:43:58;;;;;;;14.75;9.48;;;;;;;;;;4984560;28;20035;-52
2023/02/23 10:46:26;;;;;;;17.23;10.02;;;;;;;;;;4978730;28;20077;-55
2023/02/23 10:48:56;;;;;;;23.73;10.55;;;;;;;;;;4985927;28;20398;-52
2023/02/23 10:51:24;;;;;;;15.40;8.88;;;;;;;;;;4984408;28;20138;-52
2023/02/23 10:53:51;;;;;;;15.23;9.27;;;;;;;;;;4987454;28;20054;-53
2023/02/23 10:56:17;;;;;;;13.80;8.73;;;;;;;;;;4984743;28;20129;-58
2023/02/23 10:58:56;;;;;;;12.65;8.13;;;;;;;;;;4986955;28;20100;-57
2023/02/23 11:01:31;;;;;;;16.55;8.88;;;;;;;;;;4986575;28;20022;-49
2023/02/23 11:04:10;;;;;;;13.93;8.30;;;;;;;;;;4983303;28;20073;-52
2023/02/23 11:06:41;;;;;;;14.35;8.10;;;;;;;;;;4986934;28;20030;-50
2023/02/23 11:09:24;;;;;;;11.48;7.72;;;;;;;;;;4986305;28;20117;-56
2023/02/23 11:11:57;;;;;;;13.70;6.68;;;;;;;;;;4984535;28;20038;-54
2023/02/23 11:14:27;;;;;;;11.48;7.03;;;;;;;;;;4974661;28;20741;-56
2023/02/23 11:16:53;;;;;;;15.65;7.43;;;;;;;;;;4983349;28;20402;-54
2023/02/23 11:19:36;;;;;;;11.95;6.82;;;;;;;;;;4987560;28;20068;-52
2023/02/23 11:22:05;;;;;;;12.63;6.28;;;;;;;;;;4986068;28;20042;-50
2023/02/23 11:24:34;;;;;;;10.00;5.75;;;;;;;;;;4990114;28;20031;-49
2023/02/23 11:27:02;;;;;;;8.55;5.57;;;;;;;;;;4987691;28;20039;-50
2023/02/23 11:29:34;;;;;;;13.90;6.93;;;;;;;;;;4989405;28;20574;-52
2023/02/23 11:32:04;;;;;;;11.13;5.90;;;;;;;;;;4985555;28;20034;-51
2023/02/23 11:34:40;;;;;;;10.88;5.78;;;;;;;;;;4989926;28;20038;-53
2023/02/23 11:37:05;;;;;;;11.90;5.95;;;;;;;;;;4989724;28;20070;-50
2023/02/23 11:39:31;;;;;;;10.40;6.15;;;;;;;;;;4987798;28;20045;-51
2023/02/23 11:42:12;;;;;;;10.77;6.45;;;;;;;;;;4989694;28;20027;-48
2023/02/23 11:44:37;;;;;;;8.93;6.47;;;;;;;;;;4988331;28;20035;-52
2023/02/23 11:47:02;;;;;;;12.18;6.88;;;;;;;;;;4988260;28;20073;-49
2023/02/23 11:49:34;;;;;;;12.73;6.90;;;;;;;;;;4987508;28;20036;-52
2023/02/23 11:52:02;;;;;;;16.85;6.15;;;;;;;;;;4987620;28;20044;-53
2023/02/23 11:54:27;;;;;;;10.98;5.78;;;;;;;;;;4989741;28;20033;-53
2023/02/23 11:56:54;;;;;;;11.50;6.13;;;;;;;;;;4988233;28;20038;-50
2023/02/23 11:59:28;;;;;;;12.73;6.47;;;;;;;;;;4981594;28;20543;-50
2023/02/23 12:01:55;;;;;;;9.82;6.00;;;;;;;;;;4987767;28;20491;-55
2023/02/23 12:04:29;;;;;;;16.92;5.80;;;;;;;;;;4988824;28;20041;-51
2023/02/23 12:07:14;;;;;;;10.50;5.80;;;;;;;;;;4984837;28;20060;-53
2023/02/23 12:09:40;;;;;;;11.10;5.22;;;;;;;;;;4987320;28;20034;-49
2023/02/23 12:12:08;;;;;;;12.85;5.43;;;;;;;;;;4988927;28;20026;-53
2023/02/23 12:14:45;;;;;;;14.65;5.85;;;;;;;;;;4989157;28;20499;-55
2023/02/23 12:17:25;;;;;;;11.80;5.82;;;;;;;;;;4987354;28;20033;-56
2023/02/23 12:19:57;;;;;;;10.20;5.72;;;;;;;;;;4985684;28;20062;-55
2023/02/23 12:22:25;;;;;;;13.30;6.00;;;;;;;;;;4986510;28;20052;-53
2023/02/23 12:24:56;;;;;;;8.25;5.05;;;;;;;;;;4988850;28;20129;-50
2023/02/23 12:27:26;;;;;;;13.00;4.95;;;;;;;;;;4987763;28;20030;-50
2023/02/23 12:30:10;;;;;;;11.88;5.05;;;;;;;;;;4979608;28;20037;-48
2023/02/23 12:32:36;;;;;;;10.15;4.22;;;;;;;;;;4987752;28;20026;-53
2023/02/23 12:35:17;;;;;;;10.30;4.75;;;;;;;;;;4988737;28;20034;-53
2023/02/23 12:37:53;;;;;;;8.98;4.70;;;;;;;;;;4987174;28;20033;-51
2023/02/23 12:40:43;;;;;;;10.63;4.95;;;;;;;;;;4986795;28;20042;-59
2023/02/23 12:43:25;;;;;;;10.52;4.90;;;;;;;;;;4987733;28;20471;-56
2023/02/23 12:46:10;;;;;;;6.60;4.05;;;;;;;;;;4982858;28;20041;-51
2023/02/23 12:48:47;;;;;;;15.00;4.78;;;;;;;;;;4983813;28;20074;-54
2023/02/23 12:51:17;;;;;;;8.02;4.22;;;;;;;;;;4981950;28;20114;-56
2023/02/23 12:53:43;;;;;;;14.13;5.03;;;;;;;;;;4987353;28;20077;-48
2023/02/23 12:56:08;;;;;;;10.48;4.65;;;;;;;;;;4987511;28;20494;-51
2023/02/23 12:58:37;;;;;;;11.10;4.65;;;;;;;;;;4984697;28;20030;-57
2023/02/23 13:01:11;;;;;;;9.35;4.63;;;;;;;;;;4984903;28;20046;-53
2023/02/23 13:03:55;;;;;;;8.98;4.18;;;;;;;;;;4968793;28;20082;-53
2023/02/23 13:06:37;;;;;;;9.63;4.97;;;;;;;;;;4989644;28;20185;-56
2023/02/23 13:09:05;;;;;;;12.32;4.05;;;;;;;;;;4984762;28;20031;-56
2023/02/23 13:11:31;;;;;;;11.98;4.22;;;;;;;;;;4984579;28;20467;-52
2023/02/23 13:13:59;;;;;;;11.63;4.15;;;;;;;;;;4985586;28;20118;-54
2023/02/23 13:16:31;;;;;;;14.27;4.10;;;;;;;;;;4985379;28;20087;-53
2023/02/23 13:19:03;;;;;;;13.65;4.28;;;;;;;;;;4995750;28;20101;-56
2023/02/23 13:21:54;;;;;;;9.82;4.03;;;;;;;;;;4987887;28;20030;-49
2023/02/23 13:24:25;;;;;;;13.48;4.55;;;;;;;;;;4956211;28;20077;-53
2023/02/23 13:27:05;;;;;;;11.48;4.07;;;;;;;;;;4986122;28;20382;-53
2023/02/23 13:29:39;;;;;;;11.38;4.13;;;;;;;;;;4985793;28;20137;-56
2023/02/23 13:32:11;;;;;;;7.30;3.63;;;;;;;;;;4986262;28;20045;-53
2023/02/23 13:34:56;;;;;;;13.60;4.25;;;;;;;;;;4987738;28;20412;-50
2023/02/23 13:37:45;;;;;;;9.40;4.53;;;;;;;;;;4986495;28;20053;-48
2023/02/23 13:40:29;;;;;;;9.13;4.07;;;;;;;;;;4955983;28;20046;-52
2023/02/23 13:42:58;;;;;;;10.10;4.45;;;;;;;;;;4986178;28;20033;-53
2023/02/23 13:45:42;;;;;;;11.43;4.32;;;;;;;;;;4985370;28;20034;-50
2023/02/23 13:48:13;;;;;;;12.23;4.10;;;;;;;;;;4983985;28;20513;-53
2023/02/23 13:50:48;;;;;;;12.32;4.13;;;;;;;;;;4986322;28;20034;-49
2023/02/23 13:53:36;;;;;;;8.35;3.55;;;;;;;;;;4986741;28;20109;-57
2023/02/23 13:56:08;;;;;;;10.82;4.15;;;;;;;;;;4986952;28;20038;-55
2023/02/23 13:58:34;;;;;;;12.77;4.03;;;;;;;;;;4984737;28;20391;-60
2023/02/23 14:01:10;;;;;;;11.20;4.50;;;;;;;;;;4984692;28;20460;-58
2023/02/23 14:03:40;;;;;;;9.68;4.28;;;;;;;;;;4982985;28;20038;-56
2023/02/23 14:06:06;;;;;;;10.98;4.32;;;;;;;;;;4985608;28;20119;-51
2023/02/23 14:08:34;;;;;;;13.55;5.13;;;;;;;;;;4984469;28;20034;-56
2023/02/23 14:11:00;;;;;;;10.38;4.53;;;;;;;;;;4982512;28;20046;-56
2023/02/23 14:13:27;;;;;;;13.50;4.90;;;;;;;;;;4986264;28;20030;-53
2023/02/23 14:16:13;;;;;;;15.30;4.63;;;;;;;;;;4984633;28;20034;-58
2023/02/23 14:18:57;;;;;;;11.97;5.27;;;;;;;;;;4985721;28;20107;-52
2023/02/23 14:21:42;;;;;;;9.85;4.15;;;;;;;;;;4986449;28;20041;-55
2023/02/23 14:24:11;;;;;;;10.00;4.32;;;;;;;;;;4973496;28;20034;-53
2023/02/23 14:26:43;;;;;;;13.23;4.72;;;;;;;;;;4981123;28;20027;-59
2023/02/23 14:29:16;;;;;;;12.85;5.28;;;;;;;;;;4983157;28;20041;-52
2023/02/23 14:31:56;;;;;;;9.55;4.65;;;;;;;;;;4981527;28;20038;-53
2023/02/23 14:34:24;;;;;;;10.73;4.68;;;;;;;;;;4984887;28;20073;-55
2023/02/23 14:36:51;;;;;;;11.45;4.47;;;;;;;;;;4987076;28;20161;-60
2023/02/23 14:39:22;;;;;;;13.75;4.38;;;;;;;;;;4987031;28;20026;-53
2023/02/23 14:41:49;;;;;;;13.13;4.13;;;;;;;;;;4986471;28;20045;-53
2023/02/23 14:44:15;;;;;;;11.50;3.72;;;;;;;;;;4986116;28;20037;-55
2023/02/23 14:46:55;;;;;;;14.75;4.15;;;;;;;;;;4988123;28;20038;-55
2023/02/23 14:49:22;;;;;;;11.82;4.80;;;;;;;;;;4985264;28;20039;-56
2023/02/23 14:51:50;;;;;;;14.23;4.90;;;;;;;;;;4986796;28;20026;-54
2023/02/23 14:54:31;;;;;;;8.77;4.43;;;;;;;;;;4984525;28;20061;-55
2023/02/23 14:56:58;;;;;;;11.40;4.65;;;;;;;;;;4988284;28;20483;-54
2023/02/23 14:59:26;;;;;;;9.13;4.63;;;;;;;;;;4989584;28;20057;-53
2023/02/23 15:01:52;;;;;;;9.05;4.10;;;;;;;;;;4984054;28;20033;-52
2023/02/23 15:04:22;;;;;;;13.00;4.50;;;;;;;;;;4984931;28;20034;-55
2023/02/23 15:06:47;;;;;;;9.68;4.85;;;;;;;;;;4994723;28;20031;-55
2023/02/23 15:09:18;;;;;;;9.80;3.92;;;;;;;;;;4987347;28;20038;-52
2023/02/23 15:11:47;;;;;;;8.82;3.85;;;;;;;;;;4985545;28;20069;-52
2023/02/23 15:14:14;;;;;;;8.43;3.40;;;;;;;;;;4987419;28;20040;-55
2023/02/23 15:16:43;;;;;;;;;;;;;;;;;;4989122;28;20157;-53
2023/02/23 15:19:13;;;;;;;9.70;3.42;;;;;;;;;;4987753;28;19916;-52
2023/02/23 15:21:39;;;;;;;7.85;3.22;;;;;;;;;;4987228;28;20031;-55
2023/02/23 15:24:11;;;;;;;9.45;3.65;;;;;;;;;;4989055;28;20510;-55
2023/02/23 15:26:38;;;;;;;9.90;3.50;;;;;;;;;;4989477;28;20037;-51
2023/02/23 15:29:09;;;;;;;7.07;3.70;;;;;;;;;;4988795;28;20124;-53
2023/02/23 15:31:35;;;;;;;7.00;3.58;;;;;;;;;;4990373;28;20031;-52
2023/02/23 15:34:01;;;;;;;9.15;3.90;;;;;;;;;;4988308;28;21223;-52
2023/02/23 15:36:28;;;;;;;9.40;4.97;;;;;;;;;;4988658;28;20050;-50
2023/02/23 15:38:54;;;;;;;7.70;4.53;;;;;;;;;;4986330;28;20026;-54
2023/02/23 15:41:26;;;;;;;8.10;4.50;;;;;;;;;;4988406;28;20113;-52
2023/02/23 15:43:51;;;;;;;10.13;4.25;;;;;;;;;;4985163;28;20334;-55
2023/02/23 15:46:22;;;;;;;8.20;4.00;;;;;;;;;;4987484;28;20117;-56
2023/02/23 15:48:49;;;;;;;10.90;4.18;;;;;;;;;;4984074;28;20490;-54
2023/02/23 15:51:21;;;;;;;9.55;4.03;;;;;;;;;;4984864;28;20037;-53
2023/02/23 15:53:47;;;;;;;8.55;4.20;;;;;;;;;;4987285;28;21293;-55
2023/02/23 15:56:18;;;;;;;13.80;4.97;;;;;;;;;;4986347;28;20026;-55